createdAt,value
2023-02-11T00:02:50.766Z,99775.78
2023-02-11T00:07:52.625Z,99790.25
2023-02-11T00:12:54.515Z,99769.88
2023-02-11T00:17:56.638Z,99763.97
2023-02-11T00:22:58.498Z,99762.63
2023-02-11T00:28:00.472Z,99757.00
2023-02-11T00:33:02.617Z,99766.09
2023-02-11T00:38:04.785Z,99743.59
2023-02-11T00:43:06.703Z,99735.25
2023-02-11T00:48:08.602Z,99727.47
2023-02-11T00:53:10.924Z,99721.56
2023-02-11T00:58:13.586Z,99702.75
2023-02-11T01:03:17.397Z,99698.75
2023-02-11T01:08:19.965Z,99664.91
2023-02-11T01:13:22.214Z,99652.81
2023-02-11T01:18:25.135Z,99657.09
2023-02-11T01:23:27.220Z,99665.41
2023-02-11T01:28:30.296Z,99661.34
2023-02-11T01:33:34.803Z,99697.84
2023-02-11T01:38:38.026Z,99682.25
2023-02-11T01:43:46.384Z,99682.75
2023-02-11T01:48:53.363Z,99677.09
2023-02-11T01:54:16.037Z,99656.66
2023-02-11T01:59:27.762Z,99662.81
2023-02-11T02:04:35.591Z,99646.69
2023-02-11T02:09:43.397Z,99633.19
2023-02-11T02:14:45.248Z,99633.16
2023-02-11T02:20:04.332Z,99646.84
2023-02-11T02:25:27.297Z,99637.09
2023-02-11T02:31:06.469Z,99644.31
2023-02-11T02:36:14.357Z,99649.59
2023-02-11T02:41:20.162Z,99624.81
2023-02-11T02:46:33.501Z,99612.38
2023-02-11T02:51:55.592Z,99609.06
2023-02-11T02:57:34.127Z,99587.19
2023-02-11T03:03:06.559Z,99590.91
2023-02-11T03:08:11.343Z,99595.94
2023-02-11T03:13:19.249Z,99607.19
2023-02-11T03:18:24.635Z,99622.69
2023-02-11T03:24:03.307Z,99626.91
2023-02-11T03:29:18.468Z,99625.78
2023-02-11T03:34:29.158Z,99612.56
2023-02-11T03:39:38.083Z,99593.44
2023-02-11T03:45:03.130Z,99572.13
2023-02-11T03:50:07.830Z,99552.41
2023-02-11T03:55:15.257Z,99531.47
2023-02-11T04:00:17.185Z,99544.41
2023-02-11T04:05:19.090Z,99528.78
2023-02-11T04:10:21.182Z,99532.63
2023-02-11T04:15:23.386Z,99518.13
2023-02-11T04:20:25.222Z,99531.88
2023-02-11T04:25:27.353Z,99533.78
2023-02-11T04:30:29.217Z,99542.59
2023-02-11T04:35:31.078Z,99551.38
2023-02-11T04:40:32.932Z,99554.03
2023-02-11T04:45:34.829Z,99568.50
2023-02-11T04:50:36.961Z,99577.09
2023-02-11T04:55:38.812Z,99578.13
2023-02-11T05:00:40.658Z,99581.97
2023-02-11T05:05:43.156Z,99572.81
2023-02-11T05:10:48.142Z,99582.53
2023-02-11T05:15:50.804Z,99597.22
2023-02-11T05:20:52.801Z,99596.34
2023-02-11T05:25:54.607Z,99586.91
2023-02-11T05:30:56.861Z,99578.44
2023-02-11T05:36:01.997Z,99576.31
2023-02-11T05:41:05.599Z,99568.03
2023-02-11T05:46:07.694Z,99565.34
2023-02-11T05:51:09.832Z,99571.50
2023-02-11T05:56:11.796Z,99569.97
2023-02-11T06:01:13.630Z,99559.56
2023-02-11T06:06:15.787Z,99563.34
2023-02-11T06:11:18.381Z,99559.06
2023-02-11T06:16:20.266Z,99557.72
2023-02-11T06:21:23.865Z,99551.44
2023-02-11T06:26:27.045Z,99553.41
2023-02-11T06:31:29.174Z,99538.34
2023-02-11T06:36:31.585Z,99532.34
2023-02-11T06:41:34.022Z,99546.56
2023-02-11T06:46:36.286Z,99531.47
2023-02-11T06:51:38.301Z,99540.28
2023-02-11T06:56:41.412Z,99535.91
2023-02-11T07:01:43.802Z,99533.75
2023-02-11T07:06:45.660Z,99537.53
2023-02-11T07:11:47.551Z,99533.28
2023-02-11T07:16:49.400Z,99537.41
2023-02-11T07:21:51.271Z,99549.53
2023-02-11T07:26:54.198Z,99554.91
2023-02-11T07:31:56.224Z,99558.69
2023-02-11T07:36:58.078Z,99548.38
2023-02-11T07:42:00.246Z,99557.31
2023-02-11T07:47:03.299Z,99548.44
2023-02-11T07:52:05.277Z,99546.22
2023-02-11T07:57:07.116Z,99549.53
2023-02-11T08:02:09.731Z,99550.53
2023-02-11T08:07:15.291Z,99544.91
2023-02-11T08:12:17.425Z,99550.56
2023-02-11T08:17:19.916Z,99547.31
2023-02-11T08:22:21.843Z,99556.34
2023-02-11T08:27:23.651Z,99556.00
2023-02-11T08:32:25.982Z,99544.09
2023-02-11T08:37:27.837Z,99540.09
2023-02-11T08:42:29.869Z,99543.34
2023-02-11T08:47:31.675Z,99547.13
2023-02-11T08:52:33.603Z,99554.66
2023-02-11T08:57:35.521Z,99537.47
2023-02-11T09:02:37.546Z,99550.84
2023-02-11T09:07:39.444Z,99549.69
2023-02-11T09:12:41.250Z,99551.19
2023-02-11T09:17:43.103Z,99553.25
2023-02-11T09:22:45.061Z,99566.06
2023-02-11T09:27:47.077Z,99566.28
2023-02-11T09:32:48.952Z,99579.53
2023-02-11T09:37:50.839Z,99601.56
2023-02-11T09:43:11.849Z,99579.44
2023-02-11T09:48:18.577Z,99581.53
2023-02-11T09:53:28.634Z,99568.50
2023-02-11T09:58:33.583Z,99568.44
2023-02-11T10:03:43.718Z,99570.47
2023-02-11T10:09:13.301Z,99565.63
2023-02-11T10:14:25.680Z,99571.72
2023-02-11T10:19:42.402Z,99567.66
2023-02-11T10:24:53.279Z,99548.13
2023-02-11T10:30:24.467Z,99548.28
2023-02-11T10:35:27.377Z,99549.53
2023-02-11T10:40:31.033Z,99549.38
2023-02-11T10:45:36.985Z,99561.94
2023-02-11T10:50:38.835Z,99581.75
2023-02-11T10:55:55.679Z,99548.03
2023-02-11T11:00:59.994Z,99525.91
2023-02-11T11:06:05.540Z,99524.13
2023-02-11T11:11:09.681Z,99526.72
2023-02-11T11:16:14.291Z,99523.03
2023-02-11T11:21:25.823Z,99528.13
2023-02-11T11:26:39.687Z,99515.16
2023-02-11T11:32:05.501Z,99522.34
2023-02-11T11:37:35.106Z,99520.16
2023-02-11T11:42:39.897Z,99517.38
2023-02-11T11:47:48.788Z,99521.88
2023-02-11T11:53:05.351Z,99519.16
2023-02-11T11:58:15.097Z,99531.56
2023-02-11T12:03:25.883Z,99540.66
2023-02-11T12:08:42.803Z,99544.97
2023-02-11T12:14:09.163Z,99549.75
2023-02-11T12:19:24.597Z,99537.78
2023-02-11T12:24:54.604Z,99533.38
2023-02-11T12:30:09.072Z,99538.78
2023-02-11T12:35:47.483Z,99543.78
2023-02-11T12:41:12.715Z,99528.16
2023-02-11T12:46:39.410Z,99531.47
2023-02-11T12:51:50.364Z,99541.19
2023-02-11T12:57:06.574Z,99537.47
2023-02-11T13:02:26.603Z,99522.38
2023-02-11T13:07:35.625Z,99520.78
2023-02-11T13:12:56.938Z,99518.69
2023-02-11T13:18:37.357Z,99510.38
2023-02-11T13:23:45.032Z,99499.91
2023-02-11T13:29:17.412Z,99499.09
2023-02-11T13:34:45.397Z,99506.66
2023-02-11T13:40:22.027Z,99500.72
2023-02-11T13:45:47.503Z,99506.66
2023-02-11T13:50:55.972Z,99498.38
2023-02-11T13:56:24.388Z,99499.19
2023-02-11T14:01:42.377Z,99495.41
2023-02-11T14:07:42.113Z,99489.50
2023-02-11T14:13:20.001Z,99495.91
2023-02-11T14:18:52.930Z,99506.59
2023-02-11T14:24:14.753Z,99510.78
2023-02-11T14:29:42.468Z,99528.25
2023-02-11T14:34:56.526Z,99518.19
2023-02-11T14:40:07.222Z,99519.19
2023-02-11T14:45:14.550Z,99511.59
2023-02-11T14:50:22.861Z,99521.69
2023-02-11T14:55:38.158Z,99509.59
2023-02-11T15:00:49.775Z,99511.19
2023-02-11T15:06:33.436Z,99508.22
2023-02-11T15:11:40.822Z,99523.19
2023-02-11T15:16:45.188Z,99524.78
2023-02-11T15:21:48.017Z,99537.16
2023-02-11T15:27:04.790Z,99526.38
2023-02-11T15:32:10.062Z,99534.47
2023-02-11T15:37:21.156Z,99537.16
2023-02-11T15:42:32.523Z,99541.16
2023-02-11T15:47:39.696Z,99535.38
2023-02-11T15:52:45.750Z,99527.19
2023-02-11T15:57:55.095Z,99514.78
2023-02-11T16:02:57.180Z,99532.78
2023-02-11T16:08:00.929Z,99542.19
2023-02-11T16:13:08.796Z,99530.38
2023-02-11T16:18:37.820Z,99547.66
2023-02-11T16:23:44.235Z,99536.97
2023-02-11T16:28:46.529Z,99563.22
2023-02-11T16:33:48.648Z,99565.72
2023-02-11T16:38:50.630Z,99562.59
2023-02-11T16:43:52.485Z,99616.63
2023-02-11T16:48:56.317Z,99582.81
2023-02-11T16:53:58.145Z,99578.22
2023-02-11T16:59:00.767Z,99587.63
2023-02-11T17:04:02.688Z,99575.25
2023-02-11T17:09:06.807Z,99585.22
2023-02-11T17:14:08.607Z,99590.31
2023-02-11T17:19:13.838Z,99588.22
2023-02-11T17:24:15.956Z,99584.44
2023-02-11T17:29:22.994Z,99580.06
2023-02-11T17:34:25.009Z,99595.84
2023-02-11T17:39:27.667Z,99609.47
2023-02-11T17:44:29.511Z,99622.84
2023-02-11T17:49:32.576Z,99607.47
2023-02-11T17:54:35.214Z,99612.66
2023-02-11T17:59:38.796Z,99616.06
2023-02-11T18:04:40.823Z,99634.75
2023-02-11T18:09:42.941Z,99639.53
2023-02-11T18:14:45.145Z,99637.84
2023-02-11T18:19:47.325Z,99643.34
2023-02-11T18:24:54.764Z,99640.06
2023-02-11T18:29:56.557Z,99662.66
2023-02-11T18:34:58.383Z,99665.03
2023-02-11T18:40:00.250Z,99669.34
2023-02-11T18:45:02.355Z,99671.84
2023-02-11T18:50:06.152Z,99666.66
2023-02-11T18:55:09.560Z,99680.63
2023-02-11T19:00:12.248Z,99696.44
2023-02-11T19:05:14.267Z,99700.81
2023-02-11T19:10:16.388Z,99709.81
2023-02-11T19:15:18.318Z,99718.31
2023-02-11T19:20:20.387Z,99718.84
2023-02-11T19:25:22.460Z,99731.03
2023-02-11T19:30:24.592Z,99753.16
2023-02-11T19:35:26.587Z,99757.78
2023-02-11T19:40:28.429Z,99765.50
2023-02-11T19:45:30.343Z,99778.19
2023-02-11T19:50:32.242Z,99766.16
2023-02-11T19:55:36.897Z,99762.38
2023-02-11T20:00:39.158Z,99773.97
2023-02-11T20:05:43.459Z,99792.56
2023-02-11T20:10:45.305Z,99800.66
2023-02-11T20:15:47.638Z,99803.34
2023-02-11T20:20:49.485Z,99814.38
2023-02-11T20:25:51.629Z,99811.38
2023-02-11T20:30:57.860Z,99793.00
2023-02-11T20:36:02.980Z,99808.97
2023-02-11T20:41:14.736Z,99799.56
2023-02-11T20:46:18.485Z,99780.75
2023-02-11T20:51:24.079Z,99767.78
2023-02-11T20:56:31.502Z,99771.50
2023-02-11T21:01:40.747Z,99768.78
2023-02-11T21:06:47.266Z,99777.97
2023-02-11T21:11:51.813Z,99778.19
2023-02-11T21:16:55.922Z,99787.00
2023-02-11T21:22:01.016Z,99797.22
2023-02-11T21:27:03.214Z,99795.63
2023-02-11T21:32:05.408Z,99793.19
2023-02-11T21:37:07.262Z,99813.41
2023-02-11T21:42:09.467Z,99817.72
2023-02-11T21:47:11.553Z,99834.72
2023-02-11T21:52:13.910Z,99835.00
2023-02-11T21:57:15.867Z,99845.22
2023-02-11T22:02:17.767Z,99841.41
2023-02-11T22:07:20.862Z,99847.41
2023-02-11T22:12:23.340Z,99846.38
2023-02-11T22:17:25.349Z,99858.19
2023-02-11T22:22:29.285Z,99868.47
2023-02-11T22:27:31.224Z,99855.63
2023-02-11T22:32:33.141Z,99882.41
2023-02-11T22:37:35.125Z,99877.59
2023-02-11T22:42:37.012Z,99886.06
2023-02-11T22:47:38.997Z,99889.28
2023-02-11T22:52:40.820Z,99884.91
2023-02-11T22:57:42.640Z,99903.72
2023-02-11T23:02:44.533Z,99903.13
2023-02-11T23:07:46.372Z,99914.53
2023-02-11T23:12:48.200Z,99917.50
2023-02-11T23:17:50.039Z,99924.19
2023-02-11T23:22:52.052Z,99925.31
2023-02-11T23:27:53.892Z,99933.50
2023-02-11T23:32:55.719Z,99942.09
2023-02-11T23:37:57.587Z,99934.50
2023-02-11T23:42:59.409Z,99928.09
2023-02-11T23:48:01.213Z,99929.69
2023-02-11T23:53:03.066Z,99923.72
2023-02-11T23:58:04.875Z,99933.34
